Time;durP1;ratioP1;P1;durP2;ratioP2;P2;SDS_P1;SDS_P2;PMS_P1;PMS_P2;Temp;Humidity;BMP_temperature;BMP_pressure;BME280_temperature;BME280_humidity;BME280_pressure;Samples;Min_cycle;Max_cycle;Signal;HPM_P1;HPM_P2
2023/08/26 00:00:16;;;;;;;17.13;9.53;;;21.00;99.90;;;;;;5032285;28;20473;-69
2023/08/26 00:02:43;;;;;;;14.50;9.53;;;21.00;99.90;;;;;;5032419;28;20485;-69
2023/08/26 00:05:09;;;;;;;13.87;9.80;;;20.90;99.90;;;;;;5032722;28;20500;-69
2023/08/26 00:07:36;;;;;;;13.50;10.20;;;20.90;99.90;;;;;;5033132;28;20557;-69
2023/08/26 00:10:03;;;;;;;13.73;10.03;;;20.80;99.90;;;;;;5032553;28;20847;-69
2023/08/26 00:12:29;;;;;;;15.10;10.60;;;20.70;99.90;;;;;;5032360;28;20500;-69
2023/08/26 00:14:56;;;;;;;13.20;10.73;;;20.70;99.90;;;;;;5032051;28;20461;-69
2023/08/26 00:17:24;;;;;;;15.57;9.80;;;20.80;99.90;;;;;;5029844;28;20527;-67
2023/08/26 00:19:51;;;;;;;17.50;10.53;;;20.70;99.90;;;;;;5032943;28;20456;-67
2023/08/26 00:22:18;;;;;;;15.83;10.50;;;20.70;99.90;;;;;;5032139;28;20941;-67
2023/08/26 00:24:45;;;;;;;17.87;10.50;;;20.70;99.90;;;;;;5026879;28;20475;-68
2023/08/26 00:27:11;;;;;;;14.97;9.73;;;20.80;99.90;;;;;;5031242;28;20571;-68
2023/08/26 00:29:38;;;;;;;13.10;9.30;;;20.80;99.90;;;;;;5032312;28;20826;-67
2023/08/26 00:32:05;;;;;;;12.97;9.13;;;20.80;99.90;;;;;;5031292;28;20874;-68
2023/08/26 00:34:33;;;;;;;15.57;9.73;;;20.80;99.90;;;;;;5031900;28;20554;-67
2023/08/26 00:37:00;;;;;;;13.40;9.70;;;20.80;99.90;;;;;;5028523;28;20457;-67
2023/08/26 00:39:27;;;;;;;15.70;8.93;;;20.80;99.90;;;;;;5029735;28;20449;-67
2023/08/26 00:41:53;;;;;;;14.73;9.13;;;20.70;99.90;;;;;;5031853;28;21054;-68
2023/08/26 00:44:20;;;;;;;18.70;9.70;;;20.70;99.90;;;;;;5031671;28;20884;-67
2023/08/26 00:46:46;;;;;;;12.73;9.00;;;20.70;99.90;;;;;;5031920;28;20485;-67
2023/08/26 00:49:13;;;;;;;16.77;9.70;;;20.70;99.90;;;;;;5029802;28;20495;-66
2023/08/26 00:51:41;;;;;;;12.20;8.70;;;20.70;99.90;;;;;;5031404;28;20536;-68
2023/08/26 00:54:09;;;;;;;16.07;10.00;;;20.60;99.90;;;;;;5031770;28;20503;-67
2023/08/26 00:56:36;;;;;;;12.70;9.73;;;20.60;99.90;;;;;;5031351;28;20565;-68
2023/08/26 00:59:03;;;;;;;13.97;9.20;;;20.60;99.90;;;;;;5031771;28;20499;-67
2023/08/26 01:01:32;;;;;;;18.03;10.83;;;20.60;99.90;;;;;;5031334;28;20469;-67
2023/08/26 01:03:59;;;;;;;16.70;10.60;;;20.50;99.90;;;;;;5033701;28;20468;-68
2023/08/26 01:06:26;;;;;;;21.70;10.73;;;20.50;99.90;;;;;;5029541;28;20481;-68
2023/08/26 01:08:55;;;;;;;17.57;11.53;;;20.50;99.90;;;;;;5031536;28;20460;-68
2023/08/26 01:11:25;;;;;;;18.30;12.97;;;20.40;99.90;;;;;;5031198;28;20564;-68
2023/08/26 01:14:09;;;;;;;15.10;11.50;;;20.40;99.90;;;;;;5030974;28;20469;-68
2023/08/26 01:16:36;;;;;;;14.43;11.03;;;20.30;99.90;;;;;;5031887;28;20495;-68
2023/08/26 01:19:05;;;;;;;18.47;10.87;;;20.30;99.90;;;;;;5028372;28;20445;-68
2023/08/26 01:21:36;;;;;;;15.23;11.73;;;20.30;99.90;;;;;;5031169;28;20469;-68
2023/08/26 01:24:05;;;;;;;21.53;12.47;;;20.20;99.90;;;;;;5031170;28;20461;-68
2023/08/26 01:26:32;;;;;;;19.67;12.17;;;20.20;99.90;;;;;;5031373;28;20496;-68
2023/08/26 01:28:59;;;;;;;16.60;12.93;;;20.20;99.90;;;;;;5031572;28;20457;-68
2023/08/26 01:31:29;;;;;;;27.53;13.60;;;20.10;99.90;;;;;;5030982;28;20481;-67
2023/08/26 01:34:03;;;;;;;24.33;13.40;;;20.00;99.90;;;;;;5031230;28;20441;-68
2023/08/26 01:36:35;;;;;;;18.37;13.10;;;20.00;99.90;;;;;;5031170;28;20449;-68
2023/08/26 01:39:04;;;;;;;24.47;14.23;;;19.90;99.90;;;;;;5029425;28;20449;-68
2023/08/26 01:41:31;;;;;;;22.07;14.27;;;19.90;99.90;;;;;;5030581;28;21039;-68
2023/08/26 01:43:58;;;;;;;18.80;14.20;;;19.80;99.90;;;;;;5030780;28;20679;-68
2023/08/26 01:46:35;;;;;;;40.67;16.80;;;19.80;99.90;;;;;;5029622;28;20484;-68
2023/08/26 01:49:02;;;;;;;31.90;18.20;;;19.80;99.90;;;;;;5030668;28;20447;-67
2023/08/26 01:51:29;;;;;;;34.10;19.80;;;19.80;99.90;;;;;;5030811;28;20519;-67
2023/08/26 01:53:55;;;;;;;31.73;20.40;;;19.60;99.90;;;;;;5029544;28;20450;-67
2023/08/26 01:56:23;;;;;;;35.00;19.70;;;19.60;99.90;;;;;;5029141;28;21022;-67
2023/08/26 01:58:50;;;;;;;35.70;19.93;;;19.50;99.90;;;;;;5030683;28;20923;-68
2023/08/26 02:01:17;;;;;;;37.87;20.67;;;19.40;99.90;;;;;;5030555;28;20472;-67
2023/08/26 02:03:44;;;;;;;32.40;21.60;;;19.30;99.90;;;;;;5030655;28;20441;-67
2023/08/26 02:06:10;;;;;;;34.20;21.53;;;19.30;99.90;;;;;;5029165;28;20543;-67
2023/08/26 02:08:37;;;;;;;28.40;21.07;;;19.30;99.90;;;;;;5030771;28;20473;-67
2023/08/26 02:11:04;;;;;;;40.67;21.13;;;19.20;99.90;;;;;;5030540;28;20500;-67
2023/08/26 02:13:31;;;;;;;37.97;20.63;;;19.20;99.90;;;;;;5029155;28;20458;-67
2023/08/26 02:15:58;;;;;;;32.63;20.40;;;19.20;99.90;;;;;;5030833;28;20922;-67
2023/08/26 02:18:25;;;;;;;35.30;21.60;;;19.10;99.90;;;;;;5030353;28;20457;-67
2023/08/26 02:20:51;;;;;;;28.00;21.27;;;19.10;99.90;;;;;;5026960;28;20473;-67
2023/08/26 02:23:18;;;;;;;37.30;22.27;;;19.10;99.90;;;;;;5030528;28;20515;-67
2023/08/26 02:25:45;;;;;;;36.73;21.10;;;19.10;99.90;;;;;;5023940;28;20445;-67
2023/08/26 02:28:11;;;;;;;43.57;24.73;;;19.00;99.90;;;;;;5030607;28;20450;-67
2023/08/26 02:30:39;;;;;;;40.47;23.00;;;19.00;99.90;;;;;;5026439;28;20524;-66
2023/08/26 02:33:08;;;;;;;32.87;22.90;;;18.90;99.90;;;;;;5026553;28;20459;-67
2023/08/26 02:35:36;;;;;;;35.90;24.20;;;18.90;99.90;;;;;;5029342;28;20522;-67
2023/08/26 02:38:02;;;;;;;34.57;21.20;;;19.00;99.90;;;;;;5029157;28;20503;-67
2023/08/26 02:40:29;;;;;;;42.43;24.10;;;19.00;99.90;;;;;;5030375;28;20484;-67
2023/08/26 02:42:56;;;;;;;34.33;23.50;;;19.10;99.90;;;;;;5030493;28;20446;-67
2023/08/26 02:45:22;;;;;;;35.93;23.10;;;19.10;99.90;;;;;;5027935;28;20457;-67
2023/08/26 02:47:50;;;;;;;36.40;23.37;;;19.10;99.90;;;;;;5029297;28;20489;-67
2023/08/26 02:50:17;;;;;;;36.20;23.40;;;19.10;99.90;;;;;;5030368;28;20457;-67
2023/08/26 02:52:43;;;;;;;34.30;23.67;;;19.00;99.90;;;;;;5028681;28;20967;-67
2023/08/26 02:55:10;;;;;;;30.80;23.37;;;18.90;99.90;;;;;;5032527;28;20471;-67
2023/08/26 02:57:37;;;;;;;35.40;23.90;;;18.80;99.90;;;;;;5034020;28;20942;-67
2023/08/26 03:00:04;;;;;;;26.50;19.50;;;18.80;99.90;;;;;;5032218;28;20515;-67
2023/08/26 03:02:31;;;;;;;24.63;18.30;;;18.80;99.90;;;;;;5033343;28;20540;-66
2023/08/26 03:04:59;;;;;;;29.50;18.30;;;18.70;99.90;;;;;;5033918;28;20445;-67
2023/08/26 03:07:26;;;;;;;23.77;17.50;;;18.70;99.90;;;;;;5031698;28;21068;-67
2023/08/26 03:09:53;;;;;;;27.57;18.57;;;18.70;99.90;;;;;;5033888;28;20449;-67
2023/08/26 03:12:19;;;;;;;33.47;18.10;;;18.50;99.90;;;;;;5027875;28;20488;-67
2023/08/26 03:14:46;;;;;;;29.60;19.40;;;18.50;99.90;;;;;;5033572;28;20461;-67
2023/08/26 03:17:13;;;;;;;23.93;17.57;;;18.50;99.90;;;;;;5033880;28;20492;-68
2023/08/26 03:19:40;;;;;;;23.73;17.50;;;18.50;99.90;;;;;;5033720;28;21389;-67
2023/08/26 03:22:08;;;;;;;23.23;17.37;;;18.40;99.90;;;;;;5033648;28;20503;-67
2023/08/26 03:24:36;;;;;;;25.20;17.90;;;18.40;99.90;;;;;;5033489;28;20851;-67
2023/08/26 03:27:03;;;;;;;23.90;16.90;;;18.30;99.90;;;;;;5031674;28;20481;-67
2023/08/26 03:29:30;;;;;;;27.43;18.10;;;18.30;99.90;;;;;;5033275;28;21012;-67
2023/08/26 03:31:56;;;;;;;26.80;18.20;;;18.20;99.90;;;;;;5030550;28;20896;-68
2023/08/26 03:34:23;;;;;;;23.03;16.73;;;18.20;99.90;;;;;;5033117;28;20946;-67
2023/08/26 03:36:49;;;;;;;28.80;17.17;;;18.20;99.90;;;;;;5033443;28;20442;-67
2023/08/26 03:39:17;;;;;;;20.53;15.33;;;18.10;99.90;;;;;;5033335;28;20519;-67
2023/08/26 03:41:44;;;;;;;18.67;14.70;;;18.00;99.90;;;;;;5032819;28;20492;-67
2023/08/26 03:44:11;;;;;;;19.53;16.10;;;18.00;99.90;;;;;;5033442;28;20508;-67
2023/08/26 03:46:37;;;;;;;18.37;13.80;;;17.90;99.90;;;;;;5029011;28;20531;-67
2023/08/26 03:49:04;;;;;;;19.13;12.60;;;17.90;99.90;;;;;;5031624;28;20446;-67
2023/08/26 03:51:31;;;;;;;14.70;13.07;;;17.80;99.90;;;;;;5032750;28;20499;-67
2023/08/26 03:53:57;;;;;;;14.40;11.90;;;17.80;99.90;;;;;;5033207;28;20453;-67
2023/08/26 03:56:25;;;;;;;14.37;11.93;;;17.70;99.90;;;;;;5032706;28;20523;-67
2023/08/26 03:58:56;;;;;;;21.47;13.10;;;17.70;99.90;;;;;;5032321;28;20880;-66
2023/08/26 04:01:23;;;;;;;17.17;12.70;;;17.70;99.90;;;;;;5032341;28;20576;-67
2023/08/26 04:03:51;;;;;;;19.80;13.27;;;17.70;99.90;;;;;;5033118;28;21132;-68
2023/08/26 04:06:17;;;;;;;18.10;13.07;;;17.80;99.90;;;;;;5032287;28;20795;-67
2023/08/26 04:08:45;;;;;;;16.17;13.20;;;17.70;99.90;;;;;;5032735;28;20430;-68
2023/08/26 04:11:12;;;;;;;20.10;13.50;;;17.70;99.90;;;;;;5032684;28;20465;-68
2023/08/26 04:13:40;;;;;;;17.33;14.40;;;17.70;99.90;;;;;;5032651;28;20485;-67
2023/08/26 04:16:07;;;;;;;19.13;13.87;;;17.60;99.90;;;;;;5032859;28;20441;-67
2023/08/26 04:18:34;;;;;;;22.03;14.03;;;17.60;99.90;;;;;;5032563;28;20442;-67
2023/08/26 04:21:00;;;;;;;21.97;13.47;;;17.60;99.90;;;;;;5025318;28;20465;-68
2023/08/26 04:23:27;;;;;;;17.63;14.27;;;17.60;99.90;;;;;;5032153;28;20595;-68
2023/08/26 04:26:00;;;;;;;23.67;14.03;;;17.60;99.90;;;;;;5032435;28;20441;-68
2023/08/26 04:28:28;;;;;;;15.77;11.50;;;17.60;99.90;;;;;;5030105;28;20537;-68
2023/08/26 04:30:57;;;;;;;20.60;10.53;;;17.60;99.90;;;;;;5031952;28;20921;-68
2023/08/26 04:33:24;;;;;;;13.37;10.13;;;17.50;99.90;;;;;;5032098;28;20445;-67
2023/08/26 04:35:51;;;;;;;14.60;10.47;;;17.50;99.90;;;;;;5030480;28;20880;-67
2023/08/26 04:38:17;;;;;;;16.20;10.83;;;17.40;99.90;;;;;;5023606;28;20936;-68
2023/08/26 04:40:44;;;;;;;12.10;9.60;;;17.40;99.90;;;;;;5031829;28;20473;-67
2023/08/26 04:43:11;;;;;;;11.20;9.10;;;17.40;99.90;;;;;;5032380;28;20441;-67
2023/08/26 04:45:38;;;;;;;14.87;10.90;;;17.30;99.90;;;;;;5031893;28;20457;-68
2023/08/26 04:48:07;;;;;;;13.97;10.40;;;17.30;99.90;;;;;;5029371;28;20540;-68
2023/08/26 04:50:34;;;;;;;13.63;9.73;;;17.30;99.90;;;;;;5031499;28;20489;-68
2023/08/26 04:53:02;;;;;;;15.07;9.90;;;17.20;99.90;;;;;;5029118;28;20515;-68
2023/08/26 04:55:28;;;;;;;17.20;9.77;;;17.20;99.90;;;;;;5031720;28;20453;-68
2023/08/26 04:57:56;;;;;;;16.30;10.87;;;17.20;99.90;;;;;;5026385;28;20496;-67
2023/08/26 05:00:22;;;;;;;12.53;9.33;;;17.20;99.90;;;;;;5031169;28;20508;-68
2023/08/26 05:02:49;;;;;;;11.30;8.23;;;17.20;99.90;;;;;;5031082;28;20543;-68
2023/08/26 05:05:17;;;;;;;11.73;8.40;;;17.10;99.90;;;;;;5031696;28;20910;-67
2023/08/26 05:07:44;;;;;;;17.57;8.83;;;17.10;99.90;;;;;;5031416;28;20460;-67
2023/08/26 05:10:11;;;;;;;15.50;7.97;;;17.10;99.90;;;;;;5031713;28;20470;-68
2023/08/26 05:12:38;;;;;;;13.37;8.07;;;17.10;99.90;;;;;;5031279;28;20445;-68
2023/08/26 05:15:05;;;;;;;9.13;7.03;;;17.10;99.90;;;;;;5031459;28;20465;-67
2023/08/26 05:17:32;;;;;;;9.93;7.50;;;17.20;99.90;;;;;;5029869;28;20457;-67
2023/08/26 05:19:58;;;;;;;11.57;7.97;;;17.20;99.90;;;;;;5031782;28;20494;-67
2023/08/26 05:22:26;;;;;;;12.97;7.90;;;17.20;99.90;;;;;;5031108;28;20487;-69
2023/08/26 05:24:53;;;;;;;12.03;8.23;;;17.30;99.90;;;;;;5031297;28;20469;-74
2023/08/26 05:27:22;;;;;;;9.00;7.07;;;17.40;99.90;;;;;;5030550;28;21068;-72
2023/08/26 05:29:49;;;;;;;7.17;6.10;;;17.60;99.90;;;;;;5031186;28;20464;-73
2023/08/26 05:32:15;;;;;;;9.00;6.60;;;17.80;99.90;;;;;;5030639;28;20453;-73
2023/08/26 05:34:42;;;;;;;6.73;5.60;;;18.00;99.90;;;;;;5031441;28;20416;-73
2023/08/26 05:37:09;;;;;;;4.67;4.27;;;18.30;99.90;;;;;;5028484;28;20523;-72
2023/08/26 05:39:37;;;;;;;10.13;4.80;;;18.50;99.90;;;;;;5029770;28;20424;-72
2023/08/26 05:42:04;;;;;;;6.17;4.23;;;18.70;99.90;;;;;;5030657;28;21026;-75
2023/08/26 05:44:30;;;;;;;5.93;4.37;;;18.90;99.90;;;;;;5030702;28;20957;-74
2023/08/26 05:46:57;;;;;;;7.47;4.10;;;19.10;99.90;;;;;;5029458;28;20445;-75
2023/08/26 05:49:24;;;;;;;6.00;4.00;;;19.40;99.90;;;;;;5028633;28;20507;-75
2023/08/26 05:51:50;;;;;;;3.90;3.47;;;19.50;99.90;;;;;;5030187;28;20905;-74
2023/08/26 05:54:17;;;;;;;4.67;2.83;;;19.70;99.90;;;;;;5030953;28;20503;-74
2023/08/26 05:56:45;;;;;;;7.93;3.90;;;19.80;99.90;;;;;;5030823;28;20499;-74
2023/08/26 05:59:11;;;;;;;5.13;2.83;;;19.90;99.90;;;;;;5030356;28;20445;-74
2023/08/26 06:01:38;;;;;;;8.70;3.00;;;19.90;99.90;;;;;;5030742;28;20882;-75
2023/08/26 06:04:06;;;;;;;5.23;3.00;;;19.90;99.90;;;;;;5030976;28;20441;-74
2023/08/26 06:06:32;;;;;;;4.63;3.00;;;19.70;99.90;;;;;;5030342;28;20452;-75
2023/08/26 06:08:59;;;;;;;4.33;2.60;;;20.00;99.90;;;;;;5030958;28;20550;-75
2023/08/26 06:11:26;;;;;;;3.30;3.00;;;20.20;99.90;;;;;;5029725;28;20994;-75
2023/08/26 06:13:54;;;;;;;4.17;2.40;;;20.50;99.90;;;;;;5030992;28;20454;-75
2023/08/26 06:16:21;;;;;;;4.60;2.83;;;20.50;99.90;;;;;;5029931;28;20446;-73
2023/08/26 06:18:48;;;;;;;3.77;2.77;;;20.60;99.90;;;;;;5024736;28;20462;-73
2023/08/26 06:21:15;;;;;;;4.67;2.50;;;20.90;99.90;;;;;;5030248;28;20461;-74
2023/08/26 06:23:42;;;;;;;2.93;2.20;;;21.10;99.90;;;;;;5030296;28;20449;-73
2023/08/26 06:26:08;;;;;;;2.40;2.00;;;21.10;99.90;;;;;;5028570;28;20542;-75
2023/08/26 06:28:35;;;;;;;3.57;2.40;;;21.40;99.90;;;;;;5029910;28;20491;-74
2023/08/26 06:31:03;;;;;;;2.03;1.83;;;21.40;99.90;;;;;;5026783;28;21283;-74
2023/08/26 06:33:30;;;;;;;2.70;1.90;;;21.60;99.90;;;;;;5033659;28;20507;-74
2023/08/26 06:35:57;;;;;;;3.30;2.40;;;21.70;99.90;;;;;;5034451;28;20499;-74
2023/08/26 06:38:23;;;;;;;3.20;2.20;;;21.50;99.90;;;;;;5033874;28;20449;-75
2023/08/26 06:40:54;;;;;;;4.93;2.43;;;21.60;99.90;;;;;;5034044;28;20515;-74
2023/08/26 06:43:20;;;;;;;3.00;2.40;;;21.70;99.90;;;;;;5034547;28;20507;-74
2023/08/26 06:45:47;;;;;;;4.43;2.17;;;21.80;99.90;;;;;;5033824;28;20453;-74
2023/08/26 06:48:15;;;;;;;3.10;2.10;;;21.80;99.90;;;;;;5032072;28;20480;-74
2023/08/26 06:50:42;;;;;;;4.13;2.33;;;21.60;99.90;;;;;;5033696;28;20504;-74
2023/08/26 06:53:09;;;;;;;3.43;2.10;;;21.70;99.90;;;;;;5034417;28;20449;-73
2023/08/26 06:55:36;;;;;;;3.93;1.80;;;21.70;99.90;;;;;;5028071;28;20947;-74
2023/08/26 06:58:02;;;;;;;2.17;1.97;;;21.80;99.90;;;;;;5033321;28;20472;-73
2023/08/26 07:00:29;;;;;;;4.23;2.10;;;21.90;99.90;;;;;;5033518;28;20561;-75
2023/08/26 07:02:56;;;;;;;5.07;1.93;;;22.00;99.90;;;;;;5033519;28;20452;-75
2023/08/26 07:05:24;;;;;;;5.83;2.23;;;22.00;99.90;;;;;;5034223;28;20475;-74
2023/08/26 07:07:50;;;;;;;2.03;1.83;;;21.80;99.90;;;;;;5034300;28;20483;-74
2023/08/26 07:10:17;;;;;;;5.00;1.60;;;21.30;99.90;;;;;;5034291;28;20507;-76
2023/08/26 07:12:44;;;;;;;5.67;1.90;;;21.10;99.90;;;;;;5033832;28;20453;-74
2023/08/26 07:15:10;;;;;;;5.27;2.17;;;20.70;99.90;;;;;;5033684;28;20488;-75
2023/08/26 07:17:37;;;;;;;5.80;1.63;;;20.50;99.90;;;;;;5030233;28;20516;-75
2023/08/26 07:20:05;;;;;;;3.07;1.70;;;20.20;99.90;;;;;;5033785;28;20469;-74
2023/08/26 07:22:33;;;;;;;4.07;1.60;;;20.30;99.90;;;;;;5027986;28;20453;-74
2023/08/26 07:25:00;;;;;;;3.60;1.77;;;20.30;99.90;;;;;;5033509;28;20507;-76
2023/08/26 07:27:27;;;;;;;5.63;1.77;;;20.20;99.90;;;;;;5033173;28;20461;-76
2023/08/26 07:29:54;;;;;;;2.43;1.60;;;20.30;99.90;;;;;;5028559;28;20467;-74
2023/08/26 07:32:20;;;;;;;4.83;1.73;;;20.30;99.90;;;;;;5032312;28;20943;-74
2023/08/26 07:34:47;;;;;;;3.53;1.70;;;20.40;99.90;;;;;;5033249;28;20449;-75
2023/08/26 07:37:13;;;;;;;2.67;2.20;;;20.40;99.90;;;;;;5032968;28;20499;-75
2023/08/26 07:39:41;;;;;;;6.10;1.80;;;20.30;99.90;;;;;;5032416;28;20978;-75
2023/08/26 07:42:08;;;;;;;4.30;1.60;;;20.20;99.90;;;;;;5026405;28;20473;-76
2023/08/26 07:44:35;;;;;;;4.27;1.80;;;20.40;99.90;;;;;;5031536;28;20457;-76
2023/08/26 07:47:01;;;;;;;1.73;1.63;;;20.20;99.90;;;;;;5031698;28;20511;-72
2023/08/26 07:49:28;;;;;;;3.30;1.80;;;20.10;99.90;;;;;;5030466;28;20485;-71
2023/08/26 07:51:54;;;;;;;1.57;1.43;;;20.30;99.90;;;;;;5032423;28;20922;-71
2023/08/26 07:54:21;;;;;;;2.37;1.30;;;20.40;99.90;;;;;;5033065;28;20508;-71
2023/08/26 07:56:49;;;;;;;4.10;1.40;;;20.60;99.90;;;;;;5033128;28;20503;-72
2023/08/26 07:59:16;;;;;;;2.63;1.50;;;20.90;99.90;;;;;;5031616;28;20943;-71
2023/08/26 08:01:43;;;;;;;4.50;1.70;;;21.00;99.90;;;;;;5032276;28;20511;-71
2023/08/26 08:04:09;;;;;;;5.30;1.90;;;21.30;99.90;;;;;;5033173;28;20488;-71
2023/08/26 08:06:36;;;;;;;1.60;1.40;;;21.50;99.90;;;;;;5032796;28;20511;-71
2023/08/26 08:09:03;;;;;;;4.00;1.57;;;21.90;99.90;;;;;;5032758;28;20921;-72
2023/08/26 08:11:29;;;;;;;3.23;1.50;;;22.30;99.90;;;;;;5032682;28;20478;-72
2023/08/26 08:13:57;;;;;;;7.70;1.70;;;22.50;99.90;;;;;;5031984;28;20481;-72
2023/08/26 08:16:24;;;;;;;4.30;1.50;;;22.60;99.90;;;;;;5032123;28;20465;-71
2023/08/26 08:18:51;;;;;;;4.90;1.50;;;22.90;99.90;;;;;;5032110;28;20508;-76
2023/08/26 08:21:17;;;;;;;2.03;1.73;;;23.30;99.90;;;;;;5025961;28;20998;-75
2023/08/26 08:23:45;;;;;;;2.57;1.50;;;23.70;99.90;;;;;;5032527;28;20993;-75
2023/08/26 08:26:12;;;;;;;4.00;1.67;;;24.10;99.90;;;;;;5031909;28;20459;-77
2023/08/26 08:28:39;;;;;;;1.70;1.37;;;23.90;99.90;;;;;;5028067;28;20556;-76
2023/08/26 08:31:07;;;;;;;1.40;1.20;;;23.50;99.90;;;;;;5032561;28;20573;-76
2023/08/26 08:33:34;;;;;;;2.10;1.53;;;23.20;99.90;;;;;;5027253;28;20607;-73
2023/08/26 08:36:01;;;;;;;6.13;1.50;;;22.90;99.90;;;;;;5031591;28;20539;-74
2023/08/26 08:38:28;;;;;;;3.90;1.40;;;22.90;99.90;;;;;;5032081;28;20458;-74
2023/08/26 08:40:54;;;;;;;1.40;1.30;;;23.00;99.90;;;;;;5031026;28;20472;-74
2023/08/26 08:43:22;;;;;;;2.20;1.30;;;23.20;99.90;;;;;;5031124;28;20536;-74
2023/08/26 08:45:51;;;;;;;2.97;1.43;;;23.10;99.90;;;;;;5030974;28;20457;-75
2023/08/26 08:48:21;;;;;;;2.90;1.80;;;22.50;99.90;;;;;;5030536;28;20489;-78
2023/08/26 08:50:48;;;;;;;5.53;1.73;;;22.30;99.90;;;;;;5031053;28;20473;-77
2023/08/26 08:53:19;;;;;;;1.90;1.37;;;22.70;99.90;;;;;;5032778;28;20446;-77
2023/08/26 08:55:46;;;;;;;6.73;1.50;;;23.10;99.90;;;;;;5031512;28;20449;-77
2023/08/26 08:58:14;;;;;;;3.60;1.23;;;23.30;99.90;;;;;;5029759;28;20507;-79
2023/08/26 09:00:41;;;;;;;4.30;1.40;;;23.50;99.90;;;;;;5033634;28;20481;-81
2023/08/26 09:03:09;;;;;;;2.60;1.40;;;23.50;99.90;;;;;;5030649;28;21196;-77
2023/08/26 09:05:37;;;;;;;1.63;1.40;;;23.20;99.90;;;;;;5025576;28;20529;-81
2023/08/26 09:08:07;;;;;;;3.80;1.40;;;23.00;99.90;;;;;;5035029;28;20449;-79
2023/08/26 09:10:34;;;;;;;2.40;1.53;;;23.10;99.90;;;;;;5034428;28;20986;-79
2023/08/26 09:13:03;;;;;;;3.83;1.40;;;23.40;99.90;;;;;;5034479;28;20461;-79
2023/08/26 09:15:29;;;;;;;1.33;1.20;;;23.50;99.90;;;;;;5033594;28;20461;-76
2023/08/26 09:17:58;;;;;;;2.90;1.23;;;23.50;99.90;;;;;;5036228;28;20495;-81
2023/08/26 09:20:26;;;;;;;1.30;1.10;;;23.40;99.90;;;;;;5034464;28;21078;-78
2023/08/26 09:23:03;;;;;;;2.50;1.47;;;23.40;99.90;;;;;;5037402;28;20453;-80
2023/08/26 09:25:31;;;;;;;2.90;1.67;;;23.40;99.90;;;;;;5034219;28;20479;-75
2023/08/26 09:27:58;;;;;;;1.93;1.33;;;23.40;99.90;;;;;;5034931;28;20556;-78
2023/08/26 09:30:25;;;;;;;3.03;1.30;;;23.80;99.90;;;;;;5034258;28;20524;-77
2023/08/26 09:32:52;;;;;;;2.63;1.50;;;24.00;99.90;;;;;;5034693;28;20458;-78
2023/08/26 09:35:20;;;;;;;4.43;1.43;;;24.20;99.90;;;;;;5041733;28;20464;-79
2023/08/26 09:37:48;;;;;;;3.63;1.20;;;24.70;99.90;;;;;;5034823;28;20843;-79
2023/08/26 09:40:17;;;;;;;3.10;1.50;;;25.20;99.90;;;;;;5035787;28;20474;-76
2023/08/26 09:42:44;;;;;;;1.50;1.33;;;25.10;99.90;;;;;;5025489;28;20468;-78
2023/08/26 09:45:14;;;;;;;2.30;1.33;;;25.30;99.90;;;;;;5030718;28;20461;-77
2023/08/26 09:47:41;;;;;;;1.70;1.30;;;25.60;99.90;;;;;;5034563;28;20527;-77
2023/08/26 09:50:10;;;;;;;3.53;1.63;;;26.00;99.90;;;;;;5035482;28;20543;-78
2023/08/26 09:52:47;;;;;;;2.40;1.57;;;26.10;99.90;;;;;;5029001;28;20978;-78
2023/08/26 09:55:15;;;;;;;1.90;1.30;;;25.60;99.90;;;;;;5028243;28;20545;-77
2023/08/26 09:57:43;;;;;;;1.73;1.33;;;25.30;99.90;;;;;;5029686;28;20457;-78
2023/08/26 10:00:11;;;;;;;5.67;1.30;;;25.10;99.90;;;;;;5024463;28;20474;-77
2023/08/26 10:02:42;;;;;;;2.80;1.50;;;24.80;99.90;;;;;;5022956;28;20456;-78
2023/08/26 10:05:16;;;;;;;2.70;1.57;;;24.30;99.90;;;;;;5030562;28;20517;-75
2023/08/26 10:07:47;;;;;;;2.07;1.50;;;24.20;99.90;;;;;;5027637;28;20460;-77
2023/08/26 10:10:23;;;;;;;1.67;1.57;;;24.30;99.90;;;;;;5028010;28;20501;-76
2023/08/26 10:12:52;;;;;;;2.60;1.30;;;24.60;99.90;;;;;;5024692;28;20504;-77
2023/08/26 10:15:21;;;;;;;2.03;1.40;;;24.30;99.90;;;;;;5030335;28;20465;-76
2023/08/26 10:17:53;;;;;;;2.47;1.40;;;24.30;99.90;;;;;;5021906;28;20523;-77
2023/08/26 10:20:21;;;;;;;1.40;1.23;;;24.60;99.90;;;;;;5029449;28;20481;-75
2023/08/26 10:22:48;;;;;;;2.10;1.40;;;24.80;99.90;;;;;;5025592;28;21064;-75
2023/08/26 10:25:16;;;;;;;2.90;1.60;;;25.00;99.90;;;;;;5028897;28;20453;-77
2023/08/26 10:27:45;;;;;;;4.30;3.57;;;25.20;99.90;;;;;;5030252;28;20457;-79
2023/08/26 10:30:11;;;;;;;1.53;1.43;;;25.40;99.90;;;;;;5025290;28;20930;-77
2023/08/26 10:32:43;;;;;;;3.17;1.30;;;25.60;99.90;;;;;;5031942;28;20457;-76
2023/08/26 10:35:12;;;;;;;1.60;1.30;;;25.30;99.90;;;;;;5027192;28;20481;-77
2023/08/26 10:37:39;;;;;;;6.43;1.43;;;25.10;99.90;;;;;;5026705;28;20462;-74
2023/08/26 10:40:08;;;;;;;6.63;4.37;;;25.30;99.90;;;;;;5034921;28;20471;-78
2023/08/26 10:42:35;;;;;;;3.33;1.60;;;25.40;99.90;;;;;;5031993;28;20959;-78
2023/08/26 10:45:12;;;;;;;1.20;1.10;;;25.70;99.90;;;;;;5035117;28;20449;-77
2023/08/26 10:47:40;;;;;;;1.50;1.20;;;25.70;99.90;;;;;;5028966;28;20453;-76
2023/08/26 10:50:15;;;;;;;6.20;1.23;;;25.50;99.90;;;;;;5024980;28;20488;-76
2023/08/26 10:52:43;;;;;;;1.73;1.20;;;25.20;99.90;;;;;;5027318;28;20452;-78
2023/08/26 10:55:14;;;;;;;4.40;1.83;;;25.00;99.90;;;;;;5028428;28;20544;-72
2023/08/26 10:58:12;;;;;;;1.50;1.40;;;24.70;99.90;;;;;;5028596;28;20453;-70
2023/08/26 11:00:41;;;;;;;2.20;2.00;;;24.60;99.90;;;;;;5027076;28;20549;-69
2023/08/26 11:03:09;;;;;;;3.73;1.70;;;24.70;99.90;;;;;;5029705;28;20456;-71
2023/08/26 11:05:39;;;;;;;1.70;1.53;;;24.80;99.90;;;;;;5028693;28;20441;-70
2023/08/26 11:08:06;;;;;;;1.97;1.23;;;25.10;99.90;;;;;;5028741;28;20457;-71
2023/08/26 11:10:34;;;;;;;4.60;1.60;;;25.30;99.90;;;;;;5028654;28;20488;-71
2023/08/26 11:13:03;;;;;;;2.37;1.60;;;25.00;99.90;;;;;;5029730;28;20453;-71
2023/08/26 11:15:33;;;;;;;3.80;1.47;;;24.90;99.90;;;;;;5027231;28;20473;-71
2023/08/26 11:18:01;;;;;;;2.70;1.60;;;24.90;99.90;;;;;;5032582;28;20461;-73
2023/08/26 11:20:29;;;;;;;1.40;1.27;;;25.00;99.90;;;;;;5033384;28;20477;-71
2023/08/26 11:22:55;;;;;;;2.07;1.27;;;24.70;99.90;;;;;;5028077;28;21026;-73
2023/08/26 11:25:22;;;;;;;1.73;1.40;;;24.60;99.90;;;;;;5032402;28;20965;-74
2023/08/26 11:27:49;;;;;;;2.33;1.50;;;24.60;99.90;;;;;;5029913;28;20504;-75
2023/08/26 11:30:16;;;;;;;6.10;1.60;;;24.60;99.90;;;;;;5029046;28;20841;-76
2023/08/26 11:32:43;;;;;;;1.90;1.60;;;24.80;99.90;;;;;;5028198;28;20523;-74
2023/08/26 11:35:11;;;;;;;3.30;1.50;;;24.90;99.90;;;;;;5030518;28;20454;-74
2023/08/26 11:37:41;;;;;;;2.23;1.23;;;25.10;99.90;;;;;;5032704;28;20970;-73
2023/08/26 11:40:09;;;;;;;2.40;1.50;;;25.00;99.90;;;;;;5032643;28;20473;-74
2023/08/26 11:42:36;;;;;;;3.30;1.43;;;24.40;99.90;;;;;;5030774;28;20495;-74
2023/08/26 11:45:03;;;;;;;1.57;1.43;;;24.10;99.90;;;;;;5032564;28;20886;-75
2023/08/26 11:47:29;;;;;;;2.23;1.40;;;23.90;99.90;;;;;;5031042;28;20858;-74
2023/08/26 11:49:56;;;;;;;1.30;1.20;;;23.70;99.90;;;;;;5032395;28;20485;-74
2023/08/26 11:52:32;;;;;;;3.30;1.70;;;23.60;99.90;;;;;;5032872;28;20461;-75
2023/08/26 11:54:59;;;;;;;1.97;1.57;;;23.70;99.90;;;;;;5032816;28;20460;-75
2023/08/26 11:57:26;;;;;;;2.07;1.63;;;23.80;99.90;;;;;;5030434;28;20511;-74
2023/08/26 11:59:53;;;;;;;1.40;1.30;;;24.10;99.90;;;;;;5031353;28;20457;-73
2023/08/26 12:02:22;;;;;;;1.60;1.20;;;24.20;99.90;;;;;;5032136;28;20481;-73
2023/08/26 12:04:56;;;;;;;2.00;1.60;;;24.40;99.90;;;;;;5027450;28;20539;-74
2023/08/26 12:07:24;;;;;;;5.00;2.70;;;24.50;99.90;;;;;;5032519;28;20764;-75
2023/08/26 12:09:52;;;;;;;2.73;1.40;;;24.40;99.90;;;;;;5027684;28;20539;-75
2023/08/26 12:12:19;;;;;;;1.73;1.50;;;24.30;99.90;;;;;;5031892;28;20449;-74
2023/08/26 12:14:46;;;;;;;2.07;1.60;;;24.10;99.90;;;;;;5027178;28;20457;-73
2023/08/26 12:17:13;;;;;;;8.27;2.07;;;23.80;99.90;;;;;;5031488;28;20456;-73
2023/08/26 12:19:40;;;;;;;2.17;1.30;;;23.70;99.90;;;;;;5032248;28;20449;-73
2023/08/26 12:22:07;;;;;;;17.43;6.30;;;23.50;99.90;;;;;;5029655;28;20507;-74
2023/08/26 12:24:36;;;;;;;3.13;1.40;;;23.60;99.90;;;;;;5028838;28;20885;-74
2023/08/26 12:27:08;;;;;;;3.03;2.33;;;23.70;99.90;;;;;;5030178;28;20460;-74
2023/08/26 12:29:35;;;;;;;3.47;1.70;;;23.70;99.90;;;;;;5031621;28;20511;-75
2023/08/26 12:32:01;;;;;;;4.90;2.50;;;23.80;99.90;;;;;;5030244;28;20469;-74
2023/08/26 12:34:28;;;;;;;4.30;1.93;;;23.70;99.90;;;;;;5029389;28;20865;-73
2023/08/26 12:36:55;;;;;;;2.60;2.10;;;23.90;99.90;;;;;;5030104;28;21194;-73
2023/08/26 12:39:24;;;;;;;3.47;1.60;;;23.90;99.90;;;;;;5029374;28;20453;-73